Terminal Aerodrome Forecast
Issued by NWS Mt. Holly, NJ

Home | Current Version | Previous Version | Text Only | Print | Product List | Glossary On
Versions: 1 2 3 4 5 6 7 8 9 10 11 12 13 14 15 16 17 18 19 20 21
000
FTUS41 KPHI 281738
TAFABE
TAF
KABE 281738Z 2818/2918 26005KT P6SM SCT050
      TEMPO 2818/2821 BKN050
     FM282200 30008KT P6SM SCT250
     FM290600 04003KT 5SM BR SKC
     FM291500 09004KT P6SM SKC=

USA.gov is the U.S. government's official web portal to all federal, state and local government web resources and services.